Flight Track Log - Related Links

Times and Time Zones

All times are in EDT time to prevent confusion due to time zone crossing. See the UAL109 flight status page for this flight to view local times or setup timezone preferences in your user account.

Time Position Orientation Groundspeed Altitude Reporting Facility
EDT Latitude Longitude Course Direction KTS MPH feet Rate Location/Type
Mon 01:38:00 PM 56.6317 -10.7904 282° West  Level Estimated
Mon 01:39:00 PM 56.6433 -10.9838 276° West  Level Estimated
Mon 01:40:00 PM 56.6546 -11.1772 276° West  Level Estimated
Mon 01:41:00 PM 56.6656 -11.3707 276° West  Level Estimated
Mon 01:42:00 PM 56.6763 -11.5644 276° West  Level Estimated
Mon 01:43:00 PM 56.6866 -11.7582 276° West  Level Estimated
Mon 01:44:00 PM 56.6967 -11.9520 275° West  Level Estimated
Mon 01:45:00 PM 56.7065 -12.1460 275° West  Level Estimated
Mon 01:46:00 PM 56.7160 -12.3401 275° West  Level Estimated
Mon 01:47:00 PM 56.7252 -12.5343 275° West  Level Estimated
Mon 01:48:00 PM 56.7341 -12.7285 275° West  Level Estimated
Mon 01:49:00 PM 56.7426 -12.9229 275° West  Level Estimated
Mon 01:50:00 PM 56.7509 -13.1173 275° West  Level Estimated
Mon 01:51:00 PM 56.7589 -13.3118 274° West  Level Estimated
Mon 01:52:00 PM 56.7666 -13.5064 274° West  Level Estimated
Mon 01:53:00 PM 56.7739 -13.7011 274° West  Level Estimated
Mon 01:54:00 PM 56.7810 -13.8959 274° West  Level Estimated
Mon 01:55:00 PM 56.7878 -14.0907 274° West  Level Estimated
Mon 01:56:00 PM 56.7942 -14.2856 274° West  Level Estimated
Mon 01:57:00 PM 56.8004 -14.4806 273° West  Level Estimated
Mon 01:58:00 PM 56.8062 -14.6756 273° West  Level Estimated
Mon 01:59:00 PM 56.8118 -14.8707 273° West  Level Estimated
Mon 02:00:00 PM 56.8170 -15.0659 273° West  Level Estimated
Mon 02:01:00 PM 56.8219 -15.2611 273° West  Level Estimated
Mon 02:02:00 PM 56.8266 -15.4563 273° West  Level Estimated
Mon 02:03:00 PM 56.8309 -15.6516 272° West  Level Estimated
Mon 02:04:00 PM 56.8349 -15.8469 272° West  Level Estimated
Mon 02:05:00 PM 56.8386 -16.0423 272° West  Level Estimated
Mon 02:06:00 PM 56.8421 -16.2377 272° West  Level Estimated
Mon 02:07:00 PM 56.8452 -16.4332 272° West  Level Estimated
Mon 02:08:00 PM 56.8480 -16.6287 272° West  Level Estimated
Mon 02:09:00 PM 56.8505 -16.8242 271° West  Level Estimated
Mon 02:10:00 PM 56.8527 -17.0197 271° West  Level Estimated
Mon 02:11:00 PM 56.8545 -17.2152 271° West  Level Estimated
Mon 02:12:00 PM 56.8561 -17.4108 271° West  Level Estimated
Mon 02:13:00 PM 56.8574 -17.6064 271° West  Level Estimated
Mon 02:14:00 PM 56.8584 -17.8020 271° West  Level Estimated
Mon 02:15:00 PM 56.8590 -17.9976 270° West  Level Estimated
Mon 02:16:00 PM 56.8594 -18.1932 270° West  Level Estimated
Mon 02:17:00 PM 56.8594 -18.3888 270° West  Level Estimated
Mon 02:18:00 PM 56.8592 -18.5844 270° West  Level Estimated
Mon 02:19:00 PM 56.8586 -18.7801 270° West  Level Estimated
Mon 02:20:00 PM 56.8578 -18.9757 270° West  Level Estimated
Mon 02:21:00 PM 56.8566 -19.1712 269° West  Level Estimated
Mon 02:22:00 PM 56.8551 -19.3668 269° West  Level Estimated
Mon 02:23:00 PM 56.8533 -19.5624 269° West  Level Estimated
Mon 02:24:00 PM 56.8512 -19.7579 269° West  Level Estimated
Mon 02:25:00 PM 56.8489 -19.9534 269° West  Level Estimated
Mon 02:26:00 PM 56.8461 -20.1489 269° West  Level Estimated
Mon 02:27:00 PM 56.8432 -20.3444 268° West  Level Estimated
Mon 02:28:00 PM 56.8398 -20.5398 268° West  Level Estimated
Mon 02:29:00 PM 56.8362 -20.7352 268° West  Level Estimated
Mon 02:30:00 PM 56.8323 -20.9306 268° West  Level Estimated
Mon 02:31:00 PM 56.8281 -21.1259 268° West  Level Estimated
Mon 02:32:00 PM 56.8235 -21.3211 268° West  Level Estimated
Mon 02:33:00 PM 56.8187 -21.5163 267° West  Level Estimated
Mon 02:34:00 PM 56.8136 -21.7115 267° West  Level Estimated
Mon 02:35:00 PM 56.8081 -21.9066 267° West  Level Estimated
Mon 02:36:00 PM 56.8024 -22.1017 267° West  Level Estimated
Mon 02:37:00 PM 56.7963 -22.2966 267° West  Level Estimated
Mon 02:38:00 PM 56.7900 -22.4916 267° West  Level Estimated
Mon 02:39:00 PM 56.7833 -22.6864 267° West  Level Estimated
Mon 02:40:00 PM 56.7763 -22.8812 266° West  Level Estimated
Mon 02:41:00 PM 56.7691 -23.0759 266° West  Level Estimated
Mon 02:42:00 PM 56.7615 -23.2705 266° West  Level Estimated
Mon 02:43:00 PM 56.7536 -23.4651 266° West  Level Estimated
Mon 02:44:00 PM 56.7455 -23.6596 266° West  Level Estimated
Mon 02:45:00 PM 56.7370 -23.8539 266° West  Level Estimated
Mon 02:46:00 PM 56.7282 -24.0482 265° West  Level Estimated
Mon 02:47:00 PM 56.7191 -24.2424 265° West  Level Estimated
Mon 02:48:00 PM 56.7097 -24.4365 265° West  Level Estimated
Mon 02:49:00 PM 56.7001 -24.6306 265° West  Level Estimated
Mon 02:50:00 PM 56.6901 -24.8245 265° West  Level Estimated
Mon 02:51:00 PM 56.6798 -25.0183 265° West  Level Estimated
Mon 02:52:00 PM 56.6692 -25.2120 264° West  Level Estimated
Mon 02:53:00 PM 56.6583 -25.4056 264° West  Level Estimated
Mon 02:54:00 PM 56.6471 -25.5990 264° West  Level Estimated
Mon 02:55:00 PM 56.6356 -25.7924 264° West  Level Estimated
Mon 02:56:00 PM 56.6238 -25.9856 264° West  Level Estimated
Mon 02:57:00 PM 56.6117 -26.1787 264° West  Level Estimated
Mon 02:58:00 PM 56.5993 -26.3717 263° West  Level Estimated
Mon 02:59:00 PM 56.5867 -26.5646 263° West  Level Estimated
Mon 03:00:00 PM 56.5737 -26.7573 263° West  Level Estimated
Mon 03:01:00 PM 56.5604 -26.9499 263° West  Level Estimated
Mon 03:02:00 PM 56.5468 -27.1424 263° West  Level Estimated
Mon 03:03:00 PM 56.5329 -27.3347 263° West  Level Estimated
Mon 03:04:00 PM 56.5188 -27.5269 262° West  Level Estimated
Mon 03:05:00 PM 56.5043 -27.7189 262° West  Level Estimated
Mon 03:06:00 PM 56.4895 -27.9108 262° West  Level Estimated
Mon 03:07:00 PM 56.4745 -28.1025 262° West  Level Estimated
Mon 03:08:00 PM 56.4591 -28.2941 262° West  Level Estimated
Mon 03:09:00 PM 56.4435 -28.4855 262° West  Level Estimated
Mon 03:10:00 PM 56.4275 -28.6768 262° West  Level Estimated
Mon 03:11:00 PM 56.4113 -28.8679 261° West  Level Estimated
Mon 03:12:00 PM 56.3947 -29.0588 261° West  Level Estimated
Mon 03:13:00 PM 56.3779 -29.2496 261° West  Level Estimated
Mon 03:14:00 PM 56.3608 -29.4402 261° West  Level Estimated
Mon 03:15:00 PM 56.3434 -29.6306 261° West  Level Estimated
Mon 03:16:00 PM 56.3257 -29.8209 261° West  Level Estimated
Mon 03:17:00 PM 56.3077 -30.0109 260° West  Level Estimated
Mon 03:18:00 PM 56.2894 -30.2008 260° West  Level Estimated
Mon 03:19:00 PM 56.2708 -30.3906 260° West  Level Estimated
Mon 03:20:00 PM 56.2520 -30.5801 260° West  Level Estimated
Mon 03:21:00 PM 56.2328 -30.7694 260° West  Level Estimated
Mon 03:22:00 PM 56.2134 -30.9586 260° West  Level Estimated
Mon 03:23:00 PM 56.1936 -31.1475 259° West  Level Estimated
Mon 03:24:00 PM 56.1736 -31.3363 259° West  Level Estimated
Mon 03:25:00 PM 56.1533 -31.5248 259° West  Level Estimated
Mon 03:26:00 PM 56.1327 -31.7132 259° West  Level Estimated
Mon 03:27:00 PM 56.1119 -31.9014 259° West  Level Estimated
Mon 03:28:00 PM 56.0907 -32.0893 259° West  Level Estimated
Mon 03:29:00 PM 56.0692 -32.2771 259° West  Level Estimated
Mon 03:30:00 PM 56.0475 -32.4646 258° West  Level Estimated
Mon 03:31:00 PM 56.0255 -32.6519 258° West  Level Estimated
Mon 03:32:00 PM 56.0032 -32.8390 258° West  Level Estimated
Mon 03:33:00 PM 55.9806 -33.0259 258° West  Level Estimated
Mon 03:34:00 PM 55.9577 -33.2126 258° West  Level Estimated
Mon 03:35:00 PM 55.9346 -33.3990 258° West  Level Estimated
Mon 03:36:00 PM 55.9112 -33.5852 257° West  Level Estimated
Mon 03:37:00 PM 55.8875 -33.7712 257° West  Level Estimated
Mon 03:38:00 PM 55.8635 -33.9570 257° West  Level Estimated
Mon 03:39:00 PM 55.8392 -34.1426 257° West  Level Estimated
Mon 03:40:00 PM 55.8146 -34.3279 257° West  Level Estimated
Mon 03:41:00 PM 55.7898 -34.5129 257° West  Level Estimated
Mon 03:42:00 PM 55.7647 -34.6978 256° West  Level Estimated
Mon 03:43:00 PM 55.7393 -34.8824 256° West  Level Estimated
Mon 03:44:00 PM 55.7137 -35.0667 256° West  Level Estimated
Mon 03:45:00 PM 55.6877 -35.2508 256° West  Level Estimated
Mon 03:46:00 PM 55.6615 -35.4347 256° West  Level Estimated
Mon 03:47:00 PM 55.6351 -35.6183 256° West  Level Estimated
Mon 03:48:00 PM 55.6083 -35.8017 256° West  Level Estimated
Mon 03:49:00 PM 55.5813 -35.9848 255° West  Level Estimated
Mon 03:50:00 PM 55.5540 -36.1676 255° West  Level Estimated
Mon 03:51:00 PM 55.5264 -36.3503 255° West  Level Estimated
Mon 03:52:00 PM 55.4985 -36.5326 255° West  Level Estimated
Mon 03:53:00 PM 55.4704 -36.7147 255° West  Level Estimated
Mon 03:54:00 PM 55.4420 -36.8965 255° West  Level Estimated
Mon 03:55:00 PM 55.4134 -37.0781 255° West  Level Estimated
Mon 03:56:00 PM 55.3844 -37.2594 254° West  Level Estimated
Mon 03:57:00 PM 55.3553 -37.4404 254° West  Level Estimated
Mon 03:58:00 PM 55.3258 -37.6212 254° West  Level Estimated
Mon 03:59:00 PM 55.2961 -37.8017 254° West  Level Estimated
Mon 04:00:00 PM 55.2661 -37.9819 254° West  Level Estimated
Mon 04:01:00 PM 55.2358 -38.1619 254° West  Level Estimated
Mon 04:02:00 PM 55.2053 -38.3416 253° West  Level Estimated
Mon 04:03:00 PM 55.1745 -38.5210 253° West  Level Estimated
Mon 04:04:00 PM 55.1435 -38.7001 253° West  Level Estimated
Mon 04:05:00 PM 55.1122 -38.8789 253° West  Level Estimated
Mon 04:06:00 PM 55.0806 -39.0575 253° West  Level Estimated
Mon 04:07:00 PM 55.0488 -39.2358 253° West  Level Estimated
Mon 04:08:00 PM 55.0167 -39.4138 253° West  Level Estimated
Mon 04:09:00 PM 54.9843 -39.5915 252° West  Level Estimated
Mon 04:10:00 PM 54.9517 -39.7689 252° West  Level Estimated
Mon 04:11:00 PM 54.9188 -39.9461 252° West  Level Estimated
Mon 04:12:00 PM 54.8857 -40.1229 252° West  Level Estimated
Mon 04:13:00 PM 54.8523 -40.2995 252° West  Level Estimated
Mon 04:14:00 PM 54.8187 -40.4757 252° West  Level Estimated
Mon 04:15:00 PM 54.7848 -40.6517 252° West  Level Estimated
Mon 04:16:00 PM 54.7507 -40.8274 251° West  Level Estimated
Mon 04:17:00 PM 54.7163 -41.0027 251° West  Level Estimated
Mon 04:18:00 PM 54.6816 -41.1778 251° West  Level Estimated
Mon 04:19:00 PM 54.6467 -41.3526 251° West  Level Estimated
Mon 04:20:00 PM 54.6115 -41.5271 251° West  Level Estimated
Mon 04:21:00 PM 54.5761 -41.7012 251° West  Level Estimated
Mon 04:22:00 PM 54.5405 -41.8751 251° West  Level Estimated
Mon 04:23:00 PM 54.5046 -42.0487 250° West  Level Estimated
Mon 04:24:00 PM 54.4684 -42.2219 250° West  Level Estimated
Mon 04:25:00 PM 54.4320 -42.3949 250° West  Level Estimated
Mon 04:26:00 PM 54.3954 -42.5675 250° West  Level Estimated
Mon 04:27:00 PM 54.3585 -42.7398 250° West  Level Estimated
Mon 04:28:00 PM 54.3214 -42.9119 250° West  Level Estimated
Mon 04:29:00 PM 54.2840 -43.0836 250° West  Level Estimated
Mon 04:30:00 PM 54.2463 -43.2550 249° West  Level Estimated
Mon 04:31:00 PM 54.2085 -43.4261 249° West  Level Estimated
Mon 04:32:00 PM 54.1704 -43.5968 249° West  Level Estimated
Mon 04:33:00 PM 54.1320 -43.7673 249° West  Level Estimated
Mon 04:34:00 PM 54.0934 -43.9374 249° West  Level Estimated
Mon 04:35:00 PM 54.0546 -44.1073 249° West  Level Estimated
Mon 04:36:00 PM 54.0155 -44.2768 249° West  Level Estimated
Mon 04:37:00 PM 53.9762 -44.4460 249° West  Level Estimated
Mon 04:38:00 PM 53.9367 -44.6148 248° West  Level Estimated
Mon 04:39:00 PM 53.8969 -44.7834 248° West  Level Estimated
Mon 04:40:00 PM 53.8569 -44.9516 248° West  Level Estimated
Mon 04:41:00 PM 53.8166 -45.1195 248° West  Level Estimated
Mon 04:42:00 PM 53.7761 -45.2871 248° West  Level Estimated
Mon 04:43:00 PM 53.7354 -45.4543 248° West  Level Estimated
Mon 04:44:00 PM 53.6945 -45.6213 248° West  Level Estimated
Mon 04:45:00 PM 53.6533 -45.7879 247° West  Level Estimated
Mon 04:46:00 PM 53.6119 -45.9541 247° West  Level Estimated
Mon 04:47:00 PM 53.5703 -46.1201 247° West  Level Estimated
Mon 04:48:00 PM 53.5284 -46.2857 247° West  Level Estimated
Mon 04:49:00 PM 53.4863 -46.4510 247° West  Level Estimated
Mon 04:50:00 PM 53.4440 -46.6160 247° West  Level Estimated
Mon 04:51:00 PM 53.4014 -46.7806 247° West  Level Estimated
Mon 04:52:00 PM 53.3586 -46.9449 246° West  Level Estimated
Mon 04:53:00 PM 53.3156 -47.1089 246° West  Level Estimated
Mon 04:54:00 PM 53.2724 -47.2726 246° West  Level Estimated
Mon 04:55:00 PM 53.2289 -47.4359 246° West  Level Estimated
Mon 04:56:00 PM 53.1852 -47.5989 246° West  Level Estimated
Mon 04:57:00 PM 53.1413 -47.7615 246° West  Level Estimated
Mon 04:58:00 PM 53.0972 -47.9238 246° West  Level Estimated
Mon 04:59:00 PM 53.0529 -48.0858 246° West  Level Estimated
Mon 05:00:00 PM 53.0083 -48.2475 245° Southwest  Level Estimated
Mon 05:01:00 PM 52.9636 -48.4088 245° Southwest  Level Estimated
Mon 05:02:00 PM 52.9185 -48.5698 245° Southwest  Level Estimated
Mon 05:03:00 PM 52.8733 -48.7304 245° Southwest  Level Estimated
Mon 05:04:00 PM 52.8279 -48.8907 245° Southwest  Level Estimated
Mon 05:05:00 PM 52.7823 -49.0507 245° Southwest  Level Estimated
Mon 05:06:00 PM 52.7364 -49.2104 245° Southwest  Level Estimated
Mon 05:07:00 PM 52.6903 -49.3697 245° Southwest  Level Estimated
Mon 05:08:00 PM 52.6440 -49.5286 244° Southwest  Level Estimated
Mon 05:09:00 PM 52.5975 -49.6872 244° Southwest  Level Estimated
Mon 05:10:00 PM 52.5508 -49.8455 244° Southwest  Level Estimated
Mon 05:11:00 PM 52.5039 -50.0035 244° Southwest  Level Estimated
Mon 05:12:00 PM 52.4568 -50.1611 244° Southwest  Level Estimated
Mon 05:13:00 PM 52.4094 -50.3184 244° Southwest  Level Estimated
Mon 05:14:00 PM 52.3619 -50.4753 244° Southwest  Level Estimated
Mon 05:15:00 PM 52.3141 -50.6319 244° Southwest  Level Estimated
Mon 05:16:00 PM 52.2662 -50.7882 243° Southwest  Level Estimated
Mon 05:17:00 PM 52.2180 -50.9441 243° Southwest  Level Estimated
Mon 05:18:00 PM 52.1696 -51.0997 243° Southwest  Level Estimated
Mon 05:19:00 PM 52.1211 -51.2550 243° Southwest  Level Estimated
Mon 05:20:00 PM 52.0723 -51.4099 243° Southwest  Level Estimated
Mon 05:21:00 PM 52.0233 -51.5645 243° Southwest  Level Estimated
Mon 05:22:00 PM 51.9741 -51.7187 243° Southwest  Level Estimated
Mon 05:23:00 PM 51.9247 -51.8726 243° Southwest  Level Estimated
Mon 05:24:00 PM 51.8751 -52.0261 242° Southwest  Level Estimated
Mon 05:25:00 PM 51.8253 -52.1794 242° Southwest  Level Estimated
Mon 05:26:00 PM 51.7753 -52.3322 242° Southwest  Level Estimated
Mon 05:27:00 PM 51.7252 -52.4848 242° Southwest  Level Estimated
Mon 05:28:00 PM 51.6748 -52.6370 242° Southwest  Level Estimated
Mon 05:29:00 PM 51.6242 -52.7888 242° Southwest  Level Estimated
Mon 05:30:00 PM 51.5734 -52.9404 242° Southwest  Level Estimated
Mon 05:31:00 PM 51.5225 -53.0915 242° Southwest  Level Estimated
Mon 05:32:00 PM 51.4713 -53.2424 241° Southwest  Level Estimated
Mon 05:33:00 PM 51.4200 -53.3929 241° Southwest  Level Estimated
Mon 05:34:00 PM 51.3684 -53.5431 241° Southwest  Level Estimated
Mon 05:35:00 PM 51.3167 -53.6929 241° Southwest  Level Estimated
Mon 05:36:00 PM 51.2647 -53.8424 241° Southwest  Level Estimated
Mon 05:37:00 PM 51.2126 -53.9915 241° Southwest  Level Estimated
Mon 05:38:00 PM 51.1603 -54.1404 241° Southwest  Level Estimated
Mon 05:39:00 PM 51.1078 -54.2888 241° Southwest  Level Estimated
Mon 05:40:00 PM 51.0551 -54.4370 241° Southwest  Level Estimated
Mon 05:41:00 PM 51.0023 -54.5848 240° Southwest  Level Estimated
Mon 05:42:00 PM 50.9492 -54.7322 240° Southwest  Level Estimated
Mon 05:43:00 PM 50.8960 -54.8794 240° Southwest  Level Estimated
Mon 05:44:00 PM 50.8425 -55.0262 240° Southwest  Level Estimated
Mon 05:45:00 PM 50.7889 -55.1726 240° Southwest  Level Estimated
Mon 05:46:00 PM 50.7351 -55.3187 240° Southwest  Level Estimated
Mon 05:47:00 PM 50.6812 -55.4645 240° Southwest  Level Estimated
Mon 05:48:00 PM 50.6270 -55.6100 240° Southwest  Level Estimated
Mon 05:49:00 PM 50.5727 -55.7551 240° Southwest  Level Estimated
Mon 05:50:00 PM 50.5181 -55.8999 239° Southwest  Level Estimated
Mon 05:51:00 PM 50.4634 -56.0443 239° Southwest  Level Estimated
Mon 05:52:00 PM 50.4086 -56.1884 239° Southwest  Level Estimated
Mon 05:53:00 PM 50.3535 -56.3322 239° Southwest  Level Estimated
Mon 05:54:00 PM 50.2983 -56.4756 239° Southwest  Level Estimated
Mon 05:55:00 PM 50.2429 -56.6187 239° Southwest  Level Estimated
Mon 05:56:00 PM 50.1873 -56.7615 239° Southwest  Level Estimated
Mon 05:57:00 PM 50.1316 -56.9040 239° Southwest  Level Estimated
Mon 05:58:00 PM 50.0756 -57.0461 239° Southwest  Level Estimated
Mon 05:59:00 PM 50.0195 -57.1879 238° Southwest  Level Estimated
Mon 06:00:00 PM 49.9633 -57.3293 238° Southwest  Level Estimated
Mon 06:01:00 PM 49.9068 -57.4704 238° Southwest  Level Estimated
Mon 06:02:00 PM 49.8502 -57.6112 238° Southwest  Level Estimated
Mon 06:03:00 PM 49.7934 -57.7517 238° Southwest  Level Estimated
Mon 06:04:00 PM 49.7365 -57.8918 238° Southwest  Level Estimated
Mon 06:05:00 PM 49.6793 -58.0316 238° Southwest  Level Estimated
Mon 06:06:00 PM 49.6220 -58.1711 238° Southwest  Level Estimated
Mon 06:07:00 PM 49.5646 -58.3102 238° Southwest  Level Estimated
Mon 06:08:00 PM 49.5070 -58.4490 237° Southwest  Level Estimated
Mon 06:09:00 PM 49.4492 -58.5875 237° Southwest  Level Estimated
Mon 06:10:00 PM 49.3912 -58.7257 237° Southwest  Level Estimated
Mon 06:11:00 PM 49.3331 -58.8635 237° Southwest  Level Estimated
Mon 06:12:00 PM 49.2748 -59.0010 237° Southwest  Level Estimated
Mon 06:13:00 PM 49.2164 -59.1382 237° Southwest  Level Estimated
Mon 06:14:00 PM 49.1577 -59.2751 237° Southwest  Level Estimated
Mon 06:15:00 PM 49.0990 -59.4116 237° Southwest  Level Estimated
Mon 06:16:00 PM 49.0400 -59.5478 237° Southwest  Level Estimated
Mon 06:17:00 PM 48.9809 -59.6837 237° Southwest  Level Estimated
Mon 06:18:00 PM 48.9217 -59.8193 236° Southwest  Level Estimated
Mon 06:19:00 PM 48.8623 -59.9545 236° Southwest  Level Estimated
Mon 06:20:00 PM 48.8027 -60.0894 236° Southwest  Level Estimated
Mon 06:21:00 PM 48.7430 -60.2240 236° Southwest  Level Estimated
Mon 06:22:00 PM 48.6831 -60.3583 236° Southwest  Level Estimated
Mon 06:23:00 PM 48.6231 -60.4923 236° Southwest  Level Estimated
Mon 06:24:00 PM 48.5629 -60.6259 236° Southwest  Level Estimated
Mon 06:25:00 PM 48.5025 -60.7593 236° Southwest  Level Estimated
Mon 06:26:00 PM 48.4421 -60.8923 236° Southwest  Level Estimated
Mon 06:27:00 PM 48.3814 -61.0250 235° Southwest  Level Estimated
Mon 06:28:00 PM 48.3206 -61.1573 235° Southwest  Level Estimated
Mon 06:29:00 PM 48.2597 -61.2894 235° Southwest  Level Estimated
Mon 06:30:00 PM 48.1985 -61.4212 235° Southwest  Level Estimated
Mon 06:31:00 PM 48.1373 -61.5526 235° Southwest  Level Estimated
Mon 06:32:00 PM 48.0759 -61.6837 235° Southwest  Level Estimated
Mon 06:33:00 PM 48.0143 -61.8145 235° Southwest  Level Estimated
Mon 06:34:00 PM 47.9526 -61.9450 235° Southwest  Level Estimated
Mon 06:35:00 PM 47.8908 -62.0752 235° Southwest  Level Estimated
Mon 06:36:00 PM 47.8288 -62.2051 235° Southwest  Level Estimated
Mon 06:37:00 PM 47.7666 -62.3346 235° Southwest  Level Estimated
Mon 06:38:00 PM 47.7043 -62.4639 234° Southwest  Level Estimated
Mon 06:39:00 PM 47.6419 -62.5928 234° Southwest  Level Estimated
Mon 06:40:00 PM 47.5793 -62.7214 234° Southwest  Level Estimated
Mon 06:41:00 PM 47.5166 -62.8498 234° Southwest  Level Estimated
Mon 06:42:00 PM 47.4538 -62.9778 234° Southwest  Level Estimated
Mon 06:43:00 PM 47.3907 -63.1055 234° Southwest  Level Estimated
Mon 06:44:00 PM 47.3276 -63.2329 234° Southwest  Level Estimated
Mon 06:45:00 PM 47.2643 -63.3600 234° Southwest  Level Estimated
Mon 06:46:00 PM 47.2009 -63.4868 234° Southwest  Level Estimated
Mon 06:47:00 PM 47.1373 -63.6133 234° Southwest  Level Estimated
Mon 06:48:00 PM 47.0736 -63.7395 233° Southwest  Level Estimated
Mon 06:49:00 PM 47.0098 -63.8654 233° Southwest  Level Estimated
Mon 06:50:00 PM 46.9458 -63.9910 233° Southwest  Level Estimated
Mon 06:51:00 PM 46.8816 -64.1163 233° Southwest  Level Estimated
Mon 06:52:00 PM 46.8174 -64.2413 233° Southwest  Level Estimated
Mon 06:53:00 PM 46.7530 -64.3660 233° Southwest  Level Estimated
Mon 06:54:00 PM 46.6885 -64.4903 233° Southwest  Level Estimated
Mon 06:55:00 PM 46.6238 -64.6144 233° Southwest  Level Estimated
Mon 06:56:00 PM 46.5590 -64.7383 233° Southwest  Level Estimated
Mon 06:57:00 PM 46.4941 -64.8618 233° Southwest  Level Estimated
Mon 06:58:00 PM 46.4290 -64.9850 233° Southwest  Level Estimated
Mon 06:59:00 PM 46.3638 -65.1079 232° Southwest  Level Estimated
Mon 07:00:00 PM 46.2985 -65.2305 232° Southwest  Level Estimated
Mon 07:01:00 PM 46.2331 -65.3528 232° Southwest  Level Estimated
Mon 07:02:00 PM 46.1675 -65.4749 232° Southwest  Level Estimated
Mon 07:03:00 PM 46.1018 -65.5966 232° Southwest  Level Estimated
Mon 07:04:00 PM 46.0359 -65.7181 232° Southwest  Level Estimated
Mon 07:05:00 PM 45.9700 -65.8393 232° Southwest  Level Estimated
Mon 07:06:00 PM 45.9039 -65.9601 232° Southwest  Level Estimated
Mon 07:07:00 PM 45.8376 -66.0807 232° Southwest  Level Estimated
Mon 07:08:00 PM 45.7713 -66.2010 232° Southwest  Level Estimated
Mon 07:09:00 PM 45.7048 -66.3211 232° Southwest  Level Estimated
Mon 07:10:00 PM 45.6382 -66.4408 232° Southwest  Level Estimated
Mon 07:11:00 PM 45.5715 -66.5602 231° Southwest  Level Estimated
Mon 07:12:00 PM 45.5046 -66.6794 231° Southwest  Level Estimated
Mon 07:13:00 PM 45.4376 -66.7983 231° Southwest  Level Estimated
Mon 07:14:00 PM 45.3705 -66.9169 231° Southwest  Level Estimated
Mon 07:15:00 PM 45.3033 -67.0352 231° Southwest  Level Estimated
Mon 07:16:00 PM 45.2360 -67.1533 231° Southwest  Level Estimated
Mon 07:17:00 PM 45.1685 -67.2710 231° Southwest  Level Estimated
Mon 07:18:00 PM 45.1009 -67.3885 231° Southwest  Level Estimated
Mon 07:19:00 PM 45.0332 -67.5057 231° Southwest  Level Estimated
Mon 07:20:00 PM 44.9654 -67.6226 231° Southwest  Level Estimated
Mon 07:21:00 PM 44.8974 -67.7393 231° Southwest  Level Estimated
Mon 07:22:00 PM 44.8294 -67.8556 231° Southwest  Level Estimated
Mon 07:23:00 PM 44.7612 -67.9717 230° Southwest  Level Estimated
Mon 07:24:00 PM 44.6929 -68.0876 230° Southwest  Level Estimated
Mon 07:25:00 PM 44.6245 -68.2031 230° Southwest  Level Estimated
Mon 07:26:00 PM 44.5560 -68.3184 230° Southwest  Level Estimated
Mon 07:27:00 PM 44.4873 -68.4334 230° Southwest  Level Estimated
Mon 07:28:00 PM 44.4185 -68.5481 230° Southwest  Level Estimated
Mon 07:29:00 PM 44.3497 -68.6626 230° Southwest  Level Estimated
Mon 07:30:00 PM 44.2807 -68.7768 230° Southwest  Level Estimated
Mon 07:31:00 PM 44.2116 -68.8907 230° Southwest  Level Estimated
Mon 07:32:00 PM 44.1423 -69.0044 230° Southwest  Level Estimated
Mon 07:33:00 PM 44.0730 -69.1178 230° Southwest  Level Estimated
Mon 07:34:00 PM 44.0036 -69.2309 230° Southwest  Level Estimated
Mon 07:35:00 PM 43.9340 -69.3438 229° Southwest  Level Estimated
Mon 07:36:00 PM 43.8644 -69.4564 229° Southwest  Level Estimated
Mon 07:37:00 PM 43.7946 -69.5687 229° Southwest  Level Estimated
Mon 07:38:00 PM 43.7247 -69.6808 229° Southwest  Level Estimated
Mon 07:39:00 PM 43.6547 -69.7926 229° Southwest  Level Estimated
Mon 07:40:00 PM 43.5846 -69.9042 229° Southwest  Level Estimated
Mon 07:41:00 PM 43.5144 -70.0155 229° Southwest  Level Estimated
Mon 07:42:00 PM 43.4441 -70.1265 229° Southwest  Level Estimated
Mon 07:43:00 PM 43.3737 -70.2373 229° Southwest  Level Estimated
Mon 07:44:00 PM 43.3031 -70.3478 229° Southwest  Level Estimated
Mon 07:45:00 PM 43.2325 -70.4581 229° Southwest  Level Estimated
Mon 07:46:00 PM 43.1618 -70.5681 229° Southwest  Level Estimated
Mon 07:47:00 PM 43.0909 -70.6779 229° Southwest  Level Estimated
Mon 07:48:00 PM 43.0200 -70.7874 228° Southwest  Level Estimated
Mon 07:49:00 PM 42.9489 -70.8966 228° Southwest  Level Estimated
Mon 07:50:00 PM 42.8777 -71.0056 228° Southwest  Level Estimated
Mon 07:51:00 PM 42.8065 -71.1144 228° Southwest  Level Estimated
Mon 07:52:00 PM 42.7351 -71.2228 228° Southwest  Level Estimated
Mon 07:53:00 PM 42.6636 -71.3311 228° Southwest  Level Estimated
Mon 07:54:00 PM 42.5921 -71.4391 228° Southwest  Level Estimated
Mon 07:55:00 PM 42.5204 -71.5468 228° Southwest  Level Estimated
Mon 07:56:00 PM 42.4486 -71.6543 228° Southwest  Level Estimated
Mon 07:57:00 PM 42.3768 -71.7616 228° Southwest  Level Estimated
Mon 07:58:00 PM 42.3048 -71.8686 228° Southwest  Level Estimated
Mon 07:59:00 PM 42.2327 -71.9754 228° Southwest  Level Estimated
Mon 08:00:00 PM 42.1605 -72.0819 228° Southwest  Level Estimated
Mon 08:01:00 PM 42.0883 -72.1882 228° Southwest  Level Estimated
Mon 08:02:00 PM 42.0159 -72.2942 227° Southwest  Level Estimated
Mon 08:03:00 PM 41.9434 -72.4000 227° Southwest  Level Estimated
Mon 08:04:00 PM 41.8709 -72.5055 227° Southwest  Level Estimated
Mon 08:05:00 PM 41.7982 -72.6108 227° Southwest  Level Estimated
Mon 08:06:00 PM 41.7255 -72.7159 227° Southwest  Level Estimated
Mon 08:07:00 PM 41.6526 -72.8208 227° Southwest  Level Estimated
Mon 08:08:00 PM 41.5797 -72.9254 227° Southwest  Level Estimated
Mon 08:09:00 PM 41.5066 -73.0297 227° Southwest  Level Estimated
Mon 08:10:00 PM 41.4335 -73.1339 227° Southwest  Level Estimated
Mon 08:11:00 PM 41.3603 -73.2377 227° Southwest  Level Estimated
Mon 08:12:00 PM 41.2869 -73.3414 227° Southwest  Level Estimated
Mon 08:13:00 PM 41.2135 -73.4448 227° Southwest  Level Estimated
Mon 08:14:00 PM 41.1400 -73.5480 227° Southwest  Level Estimated
Mon 08:15:00 PM 41.0664 -73.6510 227° Southwest  Level Estimated
Mon 08:16:00 PM 40.9927 -73.7537 226° Southwest  Level Estimated
Mon 08:17:00 PM 40.9189 -73.8562 226° Southwest  Level Estimated
Mon 08:18:00 PM 40.8451 -73.9585 226° Southwest  Level Estimated
Mon 08:19:00 PM 40.7711 -74.0606 226° Southwest  Level Estimated
Mon 08:20:00 PM 40.6971 -74.1624 226° Southwest  Level Estimated
Mon 08:21:00 PM 40.6925 -74.1687 226° Southwest  Level Estimated
Mon 08:22:00 PM 40.6925 -74.1687 90° East  Level Estimated
Mon 08:23:00 PM 40.6925 -74.1687 90° East  Level Estimated
Mon 08:24:00 PM 40.6925 -74.1687 90° East  Level Estimated
Mon 08:25:00 PM 40.6925 -74.1687 90° East  Level Estimated
Mon 08:26:00 PM 40.6925 -74.1687 90° East  Level Estimated
Mon 08:27:00 PM 40.6925 -74.1687 90° East  Level Estimated
Mon 08:28:00 PM 40.6925 -74.1687 90° East  Level Estimated
Mon 08:29:00 PM 40.6925 -74.1687 90° East  Level Estimated
Mon 08:30:00 PM 40.6925 -74.1687 90° East  Level Estimated
Mon 08:31:00 PM 40.6925 -74.1687 90° East  Level Estimated
Mon 08:32:00 PM 40.6925 -74.1687 90° East  Level Estimated
Mon 08:33:00 PM 40.6925 -74.1687 90° East  Level Estimated
Mon 08:34:00 PM 40.6925 -74.1687 90° East  Level Estimated
Mon 08:35:00 PM 40.6925 -74.1687 90° East  Level Estimated
Mon 08:36:00 PM 40.6925 -74.1687 90° East  Level Estimated

Login

Don't have an account? Register now (free) for customized features, flight alerts, and more!